Time;durP1;ratioP1;P1;durP2;ratioP2;P2;SDS_P1;SDS_P2;PMS_P1;PMS_P2;Temp;Humidity;BMP_temperature;BMP_pressure;BME280_temperature;BME280_humidity;BME280_pressure;Samples;Min_cycle;Max_cycle;Signal;HPM_P1;HPM_P2
2024/03/10 00:00:40;;;;;;;0.28;0.28;;;;;;;;;;5079565;28;20049;-79
2024/03/10 00:03:07;;;;;;;0.30;0.30;;;;;;;;;;5067124;28;20614;-77
2024/03/10 00:05:39;;;;;;;0.82;0.50;;;;;;;;;;5074672;28;20017;-78
2024/03/10 00:08:05;;;;;;;0.30;0.30;;;;;;;;;;5073910;28;20029;-77
2024/03/10 00:10:37;;;;;;;0.75;0.30;;;;;;;;;;5066251;28;20081;-78
2024/03/10 00:13:04;;;;;;;0.83;0.50;;;;;;;;;;5059275;28;20514;-77
2024/03/10 00:15:33;;;;;;;0.20;0.20;;;;;;;;;;5057050;28;20017;-78
2024/03/10 00:17:59;;;;;;;0.55;0.28;;;;;;;;;;5073471;28;20056;-78
2024/03/10 00:20:25;;;;;;;0.47;0.35;;;;;;;;;;5075789;28;20027;-78
2024/03/10 00:22:52;;;;;;;0.30;0.30;;;;;;;;;;5071511;28;20036;-79
2024/03/10 00:25:18;;;;;;;0.30;0.30;;;;;;;;;;5086280;28;20024;-79
2024/03/10 00:27:44;;;;;;;0.52;0.40;;;;;;;;;;5072560;28;20039;-78
2024/03/10 00:30:10;;;;;;;0.22;0.22;;;;;;;;;;5083128;28;20120;-78
2024/03/10 00:32:37;;;;;;;0.90;0.32;;;;;;;;;;5088211;28;20019;-78
2024/03/10 00:35:05;;;;;;;0.52;0.20;;;;;;;;;;5095033;28;20025;-78
2024/03/10 00:37:32;;;;;;;0.20;0.20;;;;;;;;;;5081531;28;20107;-79
2024/03/10 00:39:58;;;;;;;0.35;0.20;;;;;;;;;;5074572;28;20021;-78
2024/03/10 00:42:24;;;;;;;0.30;0.30;;;;;;;;;;5076103;28;20457;-78
2024/03/10 00:44:50;;;;;;;0.20;0.20;;;;;;;;;;5076276;28;20074;-77
2024/03/10 00:47:17;;;;;;;0.15;0.15;;;;;;;;;;5076354;28;20119;-79
2024/03/10 00:49:43;;;;;;;0.25;0.10;;;;;;;;;;5083368;28;20029;-79
2024/03/10 00:52:09;;;;;;;0.13;0.13;;;;;;;;;;5091203;28;20044;-79
2024/03/10 00:54:36;;;;;;;0.30;0.30;;;;;;;;;;5094926;28;20032;-79
2024/03/10 00:57:02;;;;;;;0.35;0.30;;;;;;;;;;5084048;28;20090;-78
2024/03/10 00:59:28;;;;;;;0.17;0.17;;;;;;;;;;5088352;28;20155;-79
2024/03/10 01:01:54;;;;;;;0.30;0.30;;;;;;;;;;5063524;28;20119;-78
2024/03/10 01:04:21;;;;;;;0.10;0.10;;;;;;;;;;5077415;28;20029;-79
2024/03/10 01:06:47;;;;;;;0.20;0.20;;;;;;;;;;5079617;28;20031;-79
2024/03/10 01:09:18;;;;;;;0.10;0.10;;;;;;;;;;5092933;28;20024;-78
2024/03/10 01:11:45;;;;;;;0.17;0.17;;;;;;;;;;5096277;28;20073;-78
2024/03/10 01:14:11;;;;;;;0.20;0.20;;;;;;;;;;5079876;28;20032;-79
2024/03/10 01:16:38;;;;;;;0.20;0.20;;;;;;;;;;5070730;28;20028;-79
2024/03/10 01:19:04;;;;;;;0.40;0.20;;;;;;;;;;5072880;28;20043;-78
2024/03/10 01:21:31;;;;;;;0.22;0.20;;;;;;;;;;5076940;28;20060;-79
2024/03/10 01:23:57;;;;;;;0.20;0.20;;;;;;;;;;5078520;28;20048;-78
2024/03/10 01:26:24;;;;;;;0.30;0.30;;;;;;;;;;5076033;28;20054;-78
2024/03/10 01:28:50;;;;;;;0.10;0.10;;;;;;;;;;5061702;28;20124;-79
2024/03/10 01:31:17;;;;;;;0.28;0.20;;;;;;;;;;5079367;28;20100;-78
2024/03/10 01:33:43;;;;;;;0.28;0.28;;;;;;;;;;5060475;28;20056;-78
2024/03/10 01:36:09;;;;;;;0.10;0.10;;;;;;;;;;5081024;28;20047;-79
2024/03/10 01:38:35;;;;;;;0.10;0.10;;;;;;;;;;5082218;28;20407;-79
2024/03/10 01:41:02;;;;;;;0.20;0.20;;;;;;;;;;5070878;28;20086;-77
2024/03/10 01:43:28;;;;;;;0.20;0.20;;;;;;;;;;5080234;28;20032;-77
2024/03/10 01:46:03;;;;;;;0.32;0.20;;;;;;;;;;5078997;28;20145;-78
2024/03/10 01:48:29;;;;;;;0.30;0.10;;;;;;;;;;5079040;28;20036;-79
2024/03/10 01:50:55;;;;;;;0.20;0.20;;;;;;;;;;5079107;28;20029;-79
2024/03/10 01:53:22;;;;;;;0.22;0.15;;;;;;;;;;5086659;28;20019;-78
2024/03/10 01:55:48;;;;;;;0.20;0.20;;;;;;;;;;5075118;28;20066;-78
2024/03/10 01:58:15;;;;;;;0.30;0.20;;;;;;;;;;5090632;28;20025;-78
2024/03/10 02:00:44;;;;;;;0.10;0.10;;;;;;;;;;5089720;28;20193;-77
2024/03/10 02:03:11;;;;;;;0.10;0.10;;;;;;;;;;5076562;28;20039;-78
2024/03/10 02:05:37;;;;;;;0.10;0.10;;;;;;;;;;5086945;28;20025;-78
2024/03/10 02:08:05;;;;;;;1.17;0.20;;;;;;;;;;5085454;28;20530;-78
2024/03/10 02:10:31;;;;;;;0.03;0.03;;;;;;;;;;5065252;28;20024;-77
2024/03/10 02:12:57;;;;;;;0.30;0.10;;;;;;;;;;5077353;28;20020;-78
2024/03/10 02:15:24;;;;;;;0.43;0.30;;;;;;;;;;5077656;28;20069;-78
2024/03/10 02:17:50;;;;;;;0.10;0.10;;;;;;;;;;5076048;28;20087;-78
2024/03/10 02:20:20;;;;;;;0.20;0.20;;;;;;;;;;5076649;28;20035;-78
2024/03/10 02:22:47;;;;;;;0.13;0.13;;;;;;;;;;5077626;28;20068;-78
2024/03/10 02:25:13;;;;;;;0.15;0.15;;;;;;;;;;5077223;28;20035;-78
2024/03/10 02:27:44;;;;;;;0.13;0.13;;;;;;;;;;5078792;28;20080;-79
2024/03/10 02:49:28;;;;;;;0.20;0.20;;;;;;;;;;5017966;28;20332;-77
2024/03/10 02:51:54;;;;;;;0.15;0.10;;;;;;;;;;5066547;28;20403;-77
2024/03/10 02:54:20;;;;;;;0.32;0.30;;;;;;;;;;5059721;28;20025;-78
2024/03/10 02:56:48;;;;;;;0.20;0.10;;;;;;;;;;5064917;28;20135;-79
2024/03/10 02:59:14;;;;;;;0.22;0.20;;;;;;;;;;5075762;28;20541;-78
2024/03/10 03:01:40;;;;;;;0.10;0.10;;;;;;;;;;5062686;28;20463;-78
2024/03/10 03:04:06;;;;;;;0.15;0.10;;;;;;;;;;5061909;28;20050;-78
2024/03/10 03:06:33;;;;;;;0.10;0.10;;;;;;;;;;5060485;28;20028;-77
2024/03/10 03:08:59;;;;;;;0.10;0.10;;;;;;;;;;5069965;28;20408;-78
2024/03/10 03:11:26;;;;;;;0.20;0.20;;;;;;;;;;5079615;28;20021;-78
2024/03/10 03:13:52;;;;;;;0.10;0.10;;;;;;;;;;5065583;28;20037;-78
2024/03/10 03:16:18;;;;;;;0.10;0.10;;;;;;;;;;5076609;28;20142;-77
2024/03/10 03:18:45;;;;;;;0.10;0.10;;;;;;;;;;5075715;28;20031;-77
2024/03/10 03:21:11;;;;;;;0.00;0.00;;;;;;;;;;5074314;28;20028;-77
2024/03/10 03:23:37;;;;;;;0.30;0.30;;;;;;;;;;5078904;28;20032;-77
2024/03/10 03:26:03;;;;;;;0.00;0.00;;;;;;;;;;5068001;28;20075;-78
2024/03/10 03:28:30;;;;;;;0.30;0.10;;;;;;;;;;5075516;28;20033;-78
2024/03/10 03:30:56;;;;;;;0.00;0.00;;;;;;;;;;5078552;28;20032;-77
2024/03/10 03:33:23;;;;;;;0.00;0.00;;;;;;;;;;5073487;28;20033;-77
2024/03/10 03:35:49;;;;;;;0.30;0.10;;;;;;;;;;5056419;28;20028;-77
2024/03/10 03:38:15;;;;;;;0.10;0.10;;;;;;;;;;5077881;28;20115;-78
2024/03/10 03:40:41;;;;;;;0.10;0.10;;;;;;;;;;5081053;28;20050;-78
2024/03/10 03:43:08;;;;;;;0.20;0.20;;;;;;;;;;5062869;28;20029;-78
2024/03/10 03:45:34;;;;;;;0.10;0.10;;;;;;;;;;5076468;28;20032;-78
2024/03/10 03:48:04;;;;;;;0.00;0.00;;;;;;;;;;5075704;28;20024;-78
2024/03/10 03:50:33;;;;;;;0.10;0.10;;;;;;;;;;5062256;28;20017;-77
2024/03/10 03:53:00;;;;;;;0.10;0.10;;;;;;;;;;5074748;28;20099;-78
2024/03/10 03:55:27;;;;;;;0.00;0.00;;;;;;;;;;5075237;28;20112;-78
2024/03/10 03:57:53;;;;;;;0.00;0.00;;;;;;;;;;5072273;28;20095;-77
2024/03/10 04:00:22;;;;;;;0.00;0.00;;;;;;;;;;5073438;28;20058;-77
2024/03/10 04:02:49;;;;;;;0.10;0.10;;;;;;;;;;5073813;28;20048;-77
2024/03/10 04:05:17;;;;;;;0.00;0.00;;;;;;;;;;5058737;28;20028;-78
2024/03/10 04:07:44;;;;;;;0.10;0.00;;;;;;;;;;5074436;28;20043;-79
2024/03/10 04:10:10;;;;;;;0.25;0.08;;;;;;;;;;5077738;28;20028;-77
2024/03/10 04:12:37;;;;;;;0.10;0.10;;;;;;;;;;5068300;28;20020;-78
2024/03/10 04:15:03;;;;;;;0.15;0.15;;;;;;;;;;5057207;28;20479;-77
2024/03/10 04:17:30;;;;;;;0.28;0.10;;;;;;;;;;5071930;28;20033;-77
2024/03/10 04:19:57;;;;;;;0.00;0.00;;;;;;;;;;5068961;28;20040;-78
2024/03/10 04:22:24;;;;;;;0.10;0.10;;;;;;;;;;5072589;28;20027;-77
2024/03/10 04:24:50;;;;;;;0.30;0.10;;;;;;;;;;5072468;28;20021;-76
2024/03/10 04:27:16;;;;;;;0.10;0.10;;;;;;;;;;5071563;28;20035;-76
2024/03/10 04:29:42;;;;;;;0.10;0.10;;;;;;;;;;5074494;28;20024;-78
2024/03/10 04:32:08;;;;;;;0.10;0.10;;;;;;;;;;5078339;28;20362;-77
2024/03/10 04:34:36;;;;;;;0.20;0.20;;;;;;;;;;5093756;28;20021;-77
2024/03/10 04:37:02;;;;;;;0.15;0.15;;;;;;;;;;5089266;28;20521;-76
2024/03/10 04:39:28;;;;;;;0.10;0.10;;;;;;;;;;5072446;28;20017;-76
2024/03/10 04:41:54;;;;;;;0.17;0.17;;;;;;;;;;5074953;28;20170;-77
2024/03/10 04:44:21;;;;;;;0.10;0.10;;;;;;;;;;5080111;28;20039;-77
2024/03/10 04:46:47;;;;;;;0.00;0.00;;;;;;;;;;5086557;28;20017;-76
2024/03/10 04:49:15;;;;;;;0.00;0.00;;;;;;;;;;5080049;28;20028;-76
2024/03/10 04:51:41;;;;;;;0.00;0.00;;;;;;;;;;5088539;28;20017;-76
2024/03/10 04:54:10;;;;;;;0.20;0.10;;;;;;;;;;5069138;28;20044;-77
2024/03/10 04:56:36;;;;;;;0.00;0.00;;;;;;;;;;5080206;28;20024;-76
2024/03/10 04:59:03;;;;;;;0.30;0.08;;;;;;;;;;5083562;28;20013;-76
2024/03/10 05:01:29;;;;;;;0.00;0.00;;;;;;;;;;5084529;28;20068;-75
2024/03/10 05:03:57;;;;;;;0.10;0.10;;;;;;;;;;5097513;28;20092;-76
2024/03/10 05:06:23;;;;;;;0.10;0.10;;;;;;;;;;5095015;28;20096;-75
2024/03/10 05:08:49;;;;;;;0.10;0.10;;;;;;;;;;5070746;28;20088;-76
2024/03/10 05:11:15;;;;;;;0.30;0.10;;;;;;;;;;5082561;28;20116;-76
2024/03/10 05:13:43;;;;;;;0.68;0.13;;;;;;;;;;5075980;28;20475;-76
2024/03/10 05:16:11;;;;;;;0.13;0.13;;;;;;;;;;5075577;28;20020;-76
2024/03/10 05:18:38;;;;;;;0.50;0.10;;;;;;;;;;5076121;28;20021;-77
2024/03/10 05:21:05;;;;;;;0.90;0.35;;;;;;;;;;5075808;28;20491;-76
2024/03/10 05:23:32;;;;;;;0.17;0.17;;;;;;;;;;5075585;28;20030;-76
2024/03/10 05:25:59;;;;;;;0.10;0.10;;;;;;;;;;5059626;28;20394;-76
2024/03/10 05:28:25;;;;;;;0.03;0.03;;;;;;;;;;5062108;28;20090;-77
2024/03/10 05:30:52;;;;;;;0.80;0.20;;;;;;;;;;5077390;28;20024;-76
2024/03/10 05:33:19;;;;;;;0.10;0.10;;;;;;;;;;5078543;28;20035;-77
2024/03/10 05:35:45;;;;;;;0.08;0.08;;;;;;;;;;5060122;28;20008;-77
2024/03/10 05:38:11;;;;;;;0.00;0.00;;;;;;;;;;5060580;28;20047;-77
2024/03/10 05:40:37;;;;;;;0.57;0.20;;;;;;;;;;5076442;28;20025;-77
2024/03/10 05:43:04;;;;;;;0.10;0.10;;;;;;;;;;5078264;28;20043;-76
2024/03/10 05:45:31;;;;;;;0.10;0.08;;;;;;;;;;5063836;28;20080;-76
2024/03/10 05:47:58;;;;;;;0.20;0.20;;;;;;;;;;5075785;28;20016;-76
2024/03/10 05:50:25;;;;;;;0.20;0.10;;;;;;;;;;5076266;28;20039;-76
2024/03/10 05:52:52;;;;;;;0.20;0.20;;;;;;;;;;5076444;28;20023;-77
2024/03/10 05:55:19;;;;;;;0.00;0.00;;;;;;;;;;5053900;28;20082;-77
2024/03/10 05:57:45;;;;;;;0.15;0.10;;;;;;;;;;5075829;28;20043;-77
2024/03/10 06:00:15;;;;;;;0.00;0.00;;;;;;;;;;5074880;28;20029;-76
2024/03/10 06:02:44;;;;;;;0.00;0.00;;;;;;;;;;5075856;28;20429;-76
2024/03/10 06:05:12;;;;;;;0.00;0.00;;;;;;;;;;5075133;28;20040;-77
2024/03/10 06:07:38;;;;;;;0.13;0.10;;;;;;;;;;5075053;28;20028;-76
2024/03/10 06:10:06;;;;;;;0.10;0.10;;;;;;;;;;5069074;28;20567;-77
2024/03/10 06:12:33;;;;;;;0.00;0.00;;;;;;;;;;5073691;28;20108;-77
2024/03/10 06:14:59;;;;;;;0.08;0.08;;;;;;;;;;5064039;28;20024;-76
2024/03/10 06:17:31;;;;;;;0.10;0.10;;;;;;;;;;5066966;28;20103;-77
2024/03/10 06:25:34;;;;;;;0.10;0.10;;;;;;;;;;5027059;28;20058;-76
2024/03/10 06:28:00;;;;;;;0.10;0.08;;;;;;;;;;5074417;28;20174;-77
2024/03/10 06:30:27;;;;;;;0.75;0.05;;;;;;;;;;5074608;28;20085;-77
2024/03/10 06:32:53;;;;;;;0.13;0.10;;;;;;;;;;5056396;28;20021;-77
2024/03/10 06:35:19;;;;;;;0.20;0.10;;;;;;;;;;5074628;28;20032;-77
2024/03/10 06:37:49;;;;;;;0.25;0.10;;;;;;;;;;5074570;28;20037;-77
2024/03/10 06:40:16;;;;;;;0.10;0.10;;;;;;;;;;5076799;28;20021;-76
2024/03/10 06:42:44;;;;;;;0.08;0.08;;;;;;;;;;5082028;28;20068;-76
2024/03/10 06:45:11;;;;;;;0.28;0.10;;;;;;;;;;5064611;28;20111;-76
2024/03/10 06:47:38;;;;;;;0.13;0.10;;;;;;;;;;5074651;28;20100;-76
2024/03/10 06:50:05;;;;;;;0.20;0.10;;;;;;;;;;5073215;28;20023;-76
2024/03/10 06:52:32;;;;;;;0.00;0.00;;;;;;;;;;5073981;28;20490;-76
2024/03/10 06:54:59;;;;;;;0.32;0.30;;;;;;;;;;5056045;28;20112;-77
2024/03/10 06:57:25;;;;;;;0.10;0.10;;;;;;;;;;5074620;28;20043;-78
2024/03/10 06:59:52;;;;;;;0.28;0.00;;;;;;;;;;5064715;28;20021;-77
2024/03/10 07:02:22;;;;;;;0.35;0.20;;;;;;;;;;5074728;28;20031;-77
2024/03/10 07:04:48;;;;;;;0.00;0.00;;;;;;;;;;5073848;28;20025;-77
2024/03/10 07:07:14;;;;;;;0.10;0.10;;;;;;;;;;5074461;28;20028;-77
2024/03/10 07:09:43;;;;;;;0.10;0.10;;;;;;;;;;5074095;28;20051;-77
2024/03/10 07:12:09;;;;;;;0.10;0.10;;;;;;;;;;5073965;28;20136;-76
2024/03/10 07:14:35;;;;;;;0.20;0.20;;;;;;;;;;5074922;28;20008;-77
2024/03/10 07:17:03;;;;;;;0.68;0.17;;;;;;;;;;5071121;28;20024;-77
2024/03/10 07:19:29;;;;;;;0.10;0.10;;;;;;;;;;5072701;28;20557;-76
2024/03/10 07:21:56;;;;;;;0.40;0.35;;;;;;;;;;5073794;28;20028;-76
2024/03/10 07:24:22;;;;;;;0.20;0.20;;;;;;;;;;5068565;28;20025;-77
2024/03/10 07:26:48;;;;;;;0.10;0.10;;;;;;;;;;5078383;28;20423;-76
2024/03/10 07:29:14;;;;;;;0.65;0.20;;;;;;;;;;5066028;28;20438;-76
2024/03/10 07:31:43;;;;;;;0.20;0.20;;;;;;;;;;5075438;28;20063;-75
2024/03/10 07:34:09;;;;;;;0.20;0.20;;;;;;;;;;5073232;28;20085;-77
2024/03/10 07:36:35;;;;;;;0.40;0.15;;;;;;;;;;5074339;28;20390;-76
2024/03/10 07:39:06;;;;;;;0.15;0.15;;;;;;;;;;5079695;28;20015;-77
2024/03/10 07:41:32;;;;;;;0.30;0.15;;;;;;;;;;5093736;28;20017;-75
2024/03/10 07:43:58;;;;;;;0.20;0.10;;;;;;;;;;5092773;28;20562;-77
2024/03/10 07:46:25;;;;;;;0.13;0.10;;;;;;;;;;5094678;28;20031;-77
2024/03/10 07:48:52;;;;;;;0.20;0.13;;;;;;;;;;5093756;28;20025;-76
2024/03/10 07:51:18;;;;;;;0.10;0.10;;;;;;;;;;5092208;28;20047;-78
2024/03/10 07:53:44;;;;;;;0.30;0.10;;;;;;;;;;5080805;28;20028;-76
2024/03/10 07:56:10;;;;;;;0.20;0.10;;;;;;;;;;5058560;28;20024;-76
2024/03/10 07:58:36;;;;;;;0.15;0.13;;;;;;;;;;5080834;28;20031;-77
2024/03/10 08:01:03;;;;;;;0.30;0.15;;;;;;;;;;5078956;28;20020;-75
2024/03/10 08:03:29;;;;;;;1.50;0.10;;;;;;;;;;5086705;28;20012;-77
2024/03/10 08:05:56;;;;;;;0.55;0.30;;;;;;;;;;5090061;28;20070;-77
2024/03/10 08:08:23;;;;;;;1.10;0.40;;;;;;;;;;5095708;28;20036;-77
2024/03/10 08:10:49;;;;;;;0.28;0.22;;;;;;;;;;5094985;28;20131;-76
2024/03/10 08:13:16;;;;;;;0.28;0.20;;;;;;;;;;5095735;28;20024;-77
2024/03/10 08:15:42;;;;;;;0.22;0.20;;;;;;;;;;5095478;28;20017;-76
2024/03/10 08:18:08;;;;;;;0.38;0.38;;;;;;;;;;5077714;28;20056;-76
2024/03/10 08:20:38;;;;;;;0.10;0.10;;;;;;;;;;5074424;28;20475;-77
2024/03/10 08:23:05;;;;;;;0.22;0.20;;;;;;;;;;5073303;28;20028;-77
2024/03/10 08:25:33;;;;;;;0.22;0.20;;;;;;;;;;5074349;28;20020;-78
2024/03/10 08:28:00;;;;;;;0.30;0.30;;;;;;;;;;5057578;28;20056;-76
2024/03/10 08:30:26;;;;;;;0.20;0.20;;;;;;;;;;5073981;28;20551;-77
2024/03/10 08:32:52;;;;;;;0.10;0.10;;;;;;;;;;5072735;28;20462;-78
2024/03/10 08:35:20;;;;;;;0.30;0.30;;;;;;;;;;5073703;28;20035;-78
2024/03/10 08:37:47;;;;;;;0.20;0.20;;;;;;;;;;5077018;28;20288;-78
2024/03/10 08:40:14;;;;;;;0.50;0.50;;;;;;;;;;5077890;28;20387;-77
2024/03/10 08:42:41;;;;;;;0.70;0.35;;;;;;;;;;5075636;28;20068;-77
2024/03/10 08:45:08;;;;;;;0.50;0.50;;;;;;;;;;5078781;28;20028;-77
2024/03/10 08:47:36;;;;;;;0.63;0.35;;;;;;;;;;5079175;28;20060;-78
2024/03/10 08:50:03;;;;;;;0.30;0.30;;;;;;;;;;5074699;28;20024;-77
2024/03/10 08:52:29;;;;;;;0.30;0.30;;;;;;;;;;5077580;28;20124;-77
2024/03/10 08:54:55;;;;;;;0.25;0.25;;;;;;;;;;5079651;28;20116;-77
2024/03/10 08:57:24;;;;;;;0.47;0.47;;;;;;;;;;5078706;28;20081;-78
2024/03/10 08:59:50;;;;;;;0.15;0.15;;;;;;;;;;5076813;28;20031;-77
2024/03/10 09:02:16;;;;;;;0.40;0.40;;;;;;;;;;5068558;28;20111;-77
2024/03/10 09:04:42;;;;;;;0.35;0.35;;;;;;;;;;5077301;28;20052;-77
2024/03/10 09:07:09;;;;;;;0.30;0.30;;;;;;;;;;5076780;28;20360;-77
2024/03/10 09:09:35;;;;;;;0.55;0.43;;;;;;;;;;5077531;28;20020;-77
2024/03/10 09:12:01;;;;;;;0.68;0.32;;;;;;;;;;5082384;28;20021;-76
2024/03/10 09:14:29;;;;;;;0.50;0.40;;;;;;;;;;5080841;28;20387;-77
2024/03/10 09:16:55;;;;;;;0.30;0.30;;;;;;;;;;5078586;28;20019;-76
2024/03/10 09:19:21;;;;;;;0.30;0.30;;;;;;;;;;5077846;28;20044;-76
2024/03/10 09:21:49;;;;;;;0.20;0.20;;;;;;;;;;5077056;28;20119;-77
2024/03/10 09:24:15;;;;;;;0.40;0.40;;;;;;;;;;5067774;28;20494;-77
2024/03/10 09:26:44;;;;;;;0.40;0.40;;;;;;;;;;5077751;28;20336;-78
2024/03/10 09:29:14;;;;;;;0.60;0.35;;;;;;;;;;5070944;28;20069;-76
2024/03/10 09:31:41;;;;;;;0.50;0.50;;;;;;;;;;5080727;28;20406;-78
2024/03/10 09:34:09;;;;;;;0.35;0.35;;;;;;;;;;5080125;28;20116;-77
2024/03/10 09:36:35;;;;;;;0.30;0.30;;;;;;;;;;5075468;28;20359;-78
2024/03/10 09:39:01;;;;;;;0.45;0.30;;;;;;;;;;5081153;28;20099;-77
2024/03/10 09:41:29;;;;;;;0.35;0.35;;;;;;;;;;5097030;28;20025;-77
2024/03/10 09:43:56;;;;;;;0.22;0.22;;;;;;;;;;5097772;28;20044;-76
2024/03/10 09:46:23;;;;;;;0.32;0.20;;;;;;;;;;5088458;28;20035;-79
2024/03/10 09:48:50;;;;;;;0.85;0.20;;;;;;;;;;5067786;28;20028;-77
2024/03/10 09:51:17;;;;;;;0.10;0.10;;;;;;;;;;5065388;28;20025;-78
2024/03/10 09:53:48;;;;;;;0.20;0.20;;;;;;;;;;5075732;28;20479;-76
2024/03/10 09:56:14;;;;;;;0.20;0.20;;;;;;;;;;5066424;28;20436;-77
2024/03/10 09:59:00;;;;;;;0.20;0.20;;;;;;;;;;5070688;28;20027;-77
2024/03/10 10:01:27;;;;;;;0.55;0.22;;;;;;;;;;5074949;28;20037;-76
2024/03/10 10:03:54;;;;;;;0.45;0.15;;;;;;;;;;5057050;28;20069;-78
2024/03/10 10:06:22;;;;;;;0.10;0.10;;;;;;;;;;5074859;28;20107;-77
2024/03/10 10:08:54;;;;;;;0.20;0.20;;;;;;;;;;5074692;28;20549;-76
2024/03/10 10:11:23;;;;;;;0.20;0.20;;;;;;;;;;5078461;28;20016;-78
2024/03/10 10:14:07;;;;;;;0.30;0.25;;;;;;;;;;5078929;28;20383;-78
2024/03/10 10:16:34;;;;;;;0.30;0.30;;;;;;;;;;5068832;28;20027;-78
2024/03/10 10:19:02;;;;;;;0.73;0.30;;;;;;;;;;5074765;28;20032;-76
2024/03/10 10:21:28;;;;;;;0.77;0.30;;;;;;;;;;5066408;28;20020;-79
2024/03/10 10:23:56;;;;;;;0.40;0.22;;;;;;;;;;5075200;28;20021;-78
2024/03/10 10:26:22;;;;;;;0.20;0.20;;;;;;;;;;5075299;28;20017;-78
2024/03/10 10:29:02;;;;;;;0.20;0.20;;;;;;;;;;5074518;28;20024;-77
2024/03/10 10:31:28;;;;;;;0.68;0.30;;;;;;;;;;5074574;28;20483;-78
2024/03/10 10:33:54;;;;;;;0.20;0.20;;;;;;;;;;5075407;28;20017;-77
2024/03/10 10:36:21;;;;;;;0.10;0.10;;;;;;;;;;5076013;28;20027;-79
2024/03/10 10:38:49;;;;;;;0.10;0.10;;;;;;;;;;5075105;28;20025;-76
2024/03/10 10:41:16;;;;;;;0.10;0.10;;;;;;;;;;5062739;28;20036;-77
2024/03/10 10:43:45;;;;;;;0.20;0.20;;;;;;;;;;5075001;28;20609;-77
2024/03/10 10:46:15;;;;;;;0.30;0.30;;;;;;;;;;5075272;28;20048;-77
2024/03/10 10:48:41;;;;;;;0.20;0.20;;;;;;;;;;5074873;28;20043;-78
2024/03/10 10:51:08;;;;;;;0.40;0.22;;;;;;;;;;5065941;28;20046;-77
2024/03/10 10:53:34;;;;;;;0.10;0.10;;;;;;;;;;5074872;28;20026;-77
2024/03/10 10:56:01;;;;;;;0.15;0.15;;;;;;;;;;5074751;28;20035;-75
2024/03/10 10:58:31;;;;;;;0.30;0.10;;;;;;;;;;5074518;28;20028;-77
2024/03/10 11:01:05;;;;;;;0.17;0.10;;;;;;;;;;5066524;28;20028;-77
2024/03/10 11:03:36;;;;;;;0.43;0.20;;;;;;;;;;5063980;28;20020;-79
2024/03/10 11:06:02;;;;;;;0.13;0.13;;;;;;;;;;5075170;28;20016;-79
2024/03/10 11:08:41;;;;;;;1.45;0.20;;;;;;;;;;5071250;28;20020;-77
2024/03/10 11:11:08;;;;;;;0.22;0.20;;;;;;;;;;5076564;28;20051;-78
2024/03/10 11:13:34;;;;;;;0.10;0.10;;;;;;;;;;5076468;28;20034;-78
2024/03/10 11:16:11;;;;;;;1.17;0.30;;;;;;;;;;5077007;28;20093;-76
2024/03/10 11:18:38;;;;;;;0.70;0.20;;;;;;;;;;5060025;28;20032;-78
2024/03/10 11:21:12;;;;;;;0.10;0.10;;;;;;;;;;5075923;28;20060;-77
2024/03/10 11:23:44;;;;;;;1.27;0.28;;;;;;;;;;5068679;28;20101;-77
2024/03/10 11:26:15;;;;;;;;;;;;;;;;;;5081691;28;20016;-77
2024/03/10 11:28:55;;;;;;;0.20;0.20;;;;;;;;;;5077114;28;20036;-77
2024/03/10 11:31:21;;;;;;;0.88;0.20;;;;;;;;;;5065967;28;20024;-77
2024/03/10 11:33:48;;;;;;;0.30;0.30;;;;;;;;;;5075209;28;20023;-77
2024/03/10 11:36:15;;;;;;;1.75;0.20;;;;;;;;;;5078927;28;20093;-78
2024/03/10 11:38:42;;;;;;;0.57;0.20;;;;;;;;;;5062530;28;20071;-76
2024/03/10 11:41:09;;;;;;;0.20;0.20;;;;;;;;;;5070295;28;20028;-78
2024/03/10 11:43:36;;;;;;;0.13;0.10;;;;;;;;;;5073383;28;20036;-77
2024/03/10 11:46:04;;;;;;;0.20;0.20;;;;;;;;;;5084133;28;20016;-77
2024/03/10 11:48:31;;;;;;;0.50;0.30;;;;;;;;;;5090615;28;20134;-77
2024/03/10 11:50:58;;;;;;;0.20;0.20;;;;;;;;;;5072255;28;20021;-78
2024/03/10 11:53:26;;;;;;;0.10;0.10;;;;;;;;;;5062067;28;20028;-79
2024/03/10 11:55:57;;;;;;;0.20;0.20;;;;;;;;;;5072329;28;20020;-78
2024/03/10 11:58:26;;;;;;;0.20;0.20;;;;;;;;;;5063598;28;20024;-77
2024/03/10 12:00:53;;;;;;;0.10;0.10;;;;;;;;;;5062773;28;20040;-78
2024/03/10 12:03:23;;;;;;;0.13;0.13;;;;;;;;;;5072092;28;20021;-78
2024/03/10 12:05:49;;;;;;;0.65;0.30;;;;;;;;;;5072509;28;20099;-76
2024/03/10 12:08:17;;;;;;;0.10;0.10;;;;;;;;;;5072955;28;20048;-77
2024/03/10 12:10:43;;;;;;;0.30;0.10;;;;;;;;;;5079161;28;20032;-79
2024/03/10 12:13:18;;;;;;;0.22;0.20;;;;;;;;;;5094151;28;20095;-79
2024/03/10 12:15:51;;;;;;;0.20;0.20;;;;;;;;;;5087114;28;20088;-78
2024/03/10 12:18:18;;;;;;;0.50;0.20;;;;;;;;;;5084796;28;20495;-79
2024/03/10 12:20:47;;;;;;;1.52;0.40;;;;;;;;;;5087253;28;20023;-77
2024/03/10 12:23:13;;;;;;;0.25;0.22;;;;;;;;;;5072439;28;20020;-78
2024/03/10 12:25:44;;;;;;;0.30;0.30;;;;;;;;;;5073323;28;20030;-78
2024/03/10 12:28:11;;;;;;;0.20;0.20;;;;;;;;;;5055983;28;20450;-77
2024/03/10 12:30:37;;;;;;;0.68;0.50;;;;;;;;;;5054312;28;20417;-76
2024/03/10 12:33:04;;;;;;;0.40;0.30;;;;;;;;;;5079045;28;20025;-78
2024/03/10 12:35:30;;;;;;;0.85;0.35;;;;;;;;;;5074103;28;20017;-76
2024/03/10 12:37:56;;;;;;;2.05;0.38;;;;;;;;;;5073078;28;20030;-77
2024/03/10 12:40:23;;;;;;;0.50;0.50;;;;;;;;;;5076451;28;20016;-77
2024/03/10 12:42:50;;;;;;;0.60;0.60;;;;;;;;;;5078840;28;20036;-76
2024/03/10 12:45:19;;;;;;;1.98;1.60;;;;;;;;;;5073785;28;20033;-78
2024/03/10 12:47:46;;;;;;;2.08;1.33;;;;;;;;;;5059286;28;20449;-78
2024/03/10 12:50:13;;;;;;;2.50;1.25;;;;;;;;;;5065498;28;20088;-77
2024/03/10 12:52:40;;;;;;;1.40;0.80;;;;;;;;;;5074289;28;20530;-79
2024/03/10 12:55:07;;;;;;;1.48;0.90;;;;;;;;;;5077097;28;20403;-77
2024/03/10 12:57:37;;;;;;;0.63;0.63;;;;;;;;;;5072924;28;20032;-78
2024/03/10 13:00:22;;;;;;;0.50;0.40;;;;;;;;;;5071068;28;20028;-77
2024/03/10 13:02:51;;;;;;;1.20;1.10;;;;;;;;;;5071933;28;20021;-77
2024/03/10 13:05:18;;;;;;;2.45;1.55;;;;;;;;;;5071468;28;20108;-78
2024/03/10 13:07:45;;;;;;;0.98;0.98;;;;;;;;;;5072113;28;20016;-78
2024/03/10 13:10:11;;;;;;;0.73;0.73;;;;;;;;;;5063210;28;20020;-78
2024/03/10 13:12:38;;;;;;;0.47;0.47;;;;;;;;;;5072426;28;20017;-77
2024/03/10 13:15:05;;;;;;;0.80;0.60;;;;;;;;;;5072538;28;20016;-77
2024/03/10 13:17:33;;;;;;;2.55;1.08;;;;;;;;;;5061566;28;20382;-77
2024/03/10 13:19:59;;;;;;;0.50;0.50;;;;;;;;;;5072598;28;20020;-77
2024/03/10 13:22:25;;;;;;;0.40;0.40;;;;;;;;;;5073766;28;20080;-77
2024/03/10 13:24:51;;;;;;;0.70;0.70;;;;;;;;;;5077436;28;20020;-77
2024/03/10 13:30:21;;;;;;;0.60;0.60;;;;;;;;;;5068883;28;20043;-77
2024/03/10 13:33:08;;;;;;;0.65;0.50;;;;;;;;;;5073395;28;20151;-77
2024/03/10 13:35:35;;;;;;;2.08;0.47;;;;;;;;;;5063104;28;20024;-78
2024/03/10 13:38:04;;;;;;;1.08;0.40;;;;;;;;;;5073162;28;20024;-80
2024/03/10 13:40:30;;;;;;;0.40;0.20;;;;;;;;;;5047676;28;20017;-78
2024/03/10 13:42:56;;;;;;;0.20;0.20;;;;;;;;;;5074916;28;20032;-78
2024/03/10 13:45:23;;;;;;;0.35;0.30;;;;;;;;;;5049972;28;20017;-78
2024/03/10 13:47:50;;;;;;;0.63;0.22;;;;;;;;;;5068557;28;20387;-77
2024/03/10 13:50:19;;;;;;;0.20;0.20;;;;;;;;;;5047471;28;20021;-78
2024/03/10 13:52:45;;;;;;;0.52;0.28;;;;;;;;;;5068899;28;20395;-78
2024/03/10 13:55:12;;;;;;;0.32;0.32;;;;;;;;;;5079036;28;20037;-78
2024/03/10 13:57:43;;;;;;;0.20;0.20;;;;;;;;;;5078974;28;20102;-77
2024/03/10 14:00:18;;;;;;;0.20;0.20;;;;;;;;;;5072162;28;20112;-78
2024/03/10 14:02:45;;;;;;;0.28;0.28;;;;;;;;;;5068318;28;20013;-77
2024/03/10 14:05:14;;;;;;;0.38;0.28;;;;;;;;;;5069483;28;20029;-78
2024/03/10 14:07:41;;;;;;;0.30;0.20;;;;;;;;;;5069637;28;20553;-78
2024/03/10 14:10:07;;;;;;;0.55;0.10;;;;;;;;;;5068616;28;20020;-77
2024/03/10 14:12:40;;;;;;;0.20;0.20;;;;;;;;;;5068712;28;20027;-77
2024/03/10 14:15:09;;;;;;;0.70;0.20;;;;;;;;;;5067322;28;20035;-78
2024/03/10 14:17:37;;;;;;;0.28;0.25;;;;;;;;;;5057950;28;20024;-77
2024/03/10 14:20:04;;;;;;;0.52;0.13;;;;;;;;;;5073148;28;20032;-77
2024/03/10 14:22:30;;;;;;;0.30;0.30;;;;;;;;;;5058646;28;20062;-77
2024/03/10 14:24:57;;;;;;;0.40;0.40;;;;;;;;;;5066686;28;20032;-77
2024/03/10 14:27:23;;;;;;;0.40;0.40;;;;;;;;;;5070575;28;20031;-78
2024/03/10 14:29:49;;;;;;;0.55;0.32;;;;;;;;;;5069960;28;20016;-77
2024/03/10 14:32:15;;;;;;;0.22;0.22;;;;;;;;;;5071286;28;20013;-77
2024/03/10 14:34:41;;;;;;;0.55;0.25;;;;;;;;;;5064733;28;20017;-78
2024/03/10 14:37:08;;;;;;;0.40;0.32;;;;;;;;;;5072378;28;20025;-78
2024/03/10 14:39:35;;;;;;;0.20;0.20;;;;;;;;;;5067179;28;20045;-77
2024/03/10 14:42:01;;;;;;;0.55;0.30;;;;;;;;;;5069904;28;20020;-78
2024/03/10 14:44:27;;;;;;;0.52;0.30;;;;;;;;;;5069644;28;20025;-77
2024/03/10 14:46:53;;;;;;;0.20;0.20;;;;;;;;;;5061715;28;20029;-78
2024/03/10 14:49:20;;;;;;;0.30;0.30;;;;;;;;;;5064581;28;20364;-78
2024/03/10 14:51:46;;;;;;;0.20;0.20;;;;;;;;;;5072786;28;20020;-77
2024/03/10 14:54:12;;;;;;;0.10;0.10;;;;;;;;;;5071403;28;20371;-76
2024/03/10 14:56:38;;;;;;;0.40;0.40;;;;;;;;;;5062302;28;20009;-77
2024/03/10 14:59:06;;;;;;;0.50;0.30;;;;;;;;;;5064887;28;20460;-78
2024/03/10 15:01:32;;;;;;;1.48;0.50;;;;;;;;;;5062610;28;20075;-77
2024/03/10 15:03:58;;;;;;;0.40;0.40;;;;;;;;;;5047728;28;20444;-77
2024/03/10 15:06:27;;;;;;;0.47;0.40;;;;;;;;;;5063668;28;20363;-75
2024/03/10 15:08:53;;;;;;;0.98;0.50;;;;;;;;;;5069700;28;20056;-77
2024/03/10 15:11:20;;;;;;;0.38;0.38;;;;;;;;;;5046518;28;20688;-77